• Join FlightAware (Why Join?)
  • Login
  • US Flag 
Rudolph Flight #1: Arrived! 
10:12AM EST


 

Airport Tracker/Info


-or-


 

Live Flight TrackerFlight Track Log ✈ ASA558 ✈ 08-May-2013 ✈ KSEA - KPSP

Flight Track Log - Related Links

Times and Time Zones

All times are in EDT time to prevent confusion due to time zone crossing. See the ASA558 flight status page for this flight to view local times or setup timezone preferences in your user account.

Time Position Orientation Groundspeed Altitude Reporting Facility
EDT Latitude Longitude Course Direction KTS MPH feet Rate Location/Type
04:31PM 47.4258 -122.3089 181° South 174 200 1,700  Level Seattle Center
04:32PM 47.3575 -122.3106 181° South 239 275 3,700 1,440 Climbing Seattle Center
04:33PM 47.2750 -122.3103 180° South 290 334 5,000 1,380 Climbing Seattle Center
04:34PM 47.1889 -122.2850 169° South 280 322 6,800 2,280 Climbing Seattle Center
04:35PM 47.1147 -122.2219 150° Southeast 285 328 10,200 2,700 Climbing Seattle Center
04:36PM 47.0439 -122.1614 150° Southeast 298 343 12,300 2,340 Climbing Seattle Center
04:37PM 46.9539 -122.1211 163° South 336 387 15,000 2,520 Climbing Seattle Center
04:38PM 46.8583 -122.0883 167° South 351 404 17,500 2,100 Climbing Seattle Center
04:39PM 46.7675 -122.0603 168° South 366 421 19,300 1,860 Climbing Seattle Center
04:40PM 46.6658 -122.0256 167° South 378 435 21,400 1,920 Climbing Seattle Center
04:41PM 46.5606 -121.9894 167° South 392 451 23,300 1,860 Climbing Seattle Center
04:42PM 46.4308 -121.9461 167° South 404 465 25,200 1,620 Climbing Seattle Center
04:43PM 46.3172 -121.9086 167° South 421 484 26,700 1,500 Climbing Seattle Center
04:44PM 46.1933 -121.8694 168° South 429 494 28,300 1,380 Climbing Seattle Center
04:45PM 46.0750 -121.8303 167° South 436 502 29,600 1,380 Climbing Seattle Center
04:46PM 45.9567 -121.7922 167° South 438 504 31,200 1,380 Climbing Seattle Center
04:47PM 45.8411 -121.7528 167° South 430 495 32,500 840 Climbing Seattle Center
04:48PM 45.7250 -121.7144 167° South 430 495 33,000 120 Climbing Seattle Center
04:50PM 45.5882 -121.6707 167° South  Level FlightAware Approximate
04:50PM 45.4892 -121.6381 167° South 437 503 33,000  Level Seattle Center
04:51PM 45.3700 -121.6014 168° South 440 506 33,000  Level Seattle Center
04:52PM 45.2506 -121.5633 167° South 441 507 33,000  Level Seattle Center
04:53PM 45.1319 -121.5250 167° South 440 506 33,000  Level Seattle Center
04:54PM 45.0131 -121.4867 167° South 441 507 33,000  Level Seattle Center
04:55PM 44.8719 -121.4425 167° South 436 502 33,000  Level Seattle Center
04:56PM 44.7542 -121.4061 168° South 437 503 33,000  Level Seattle Center
04:57PM 44.6361 -121.3703 168° South 436 502 33,000  Level Seattle Center
04:58PM 44.5114 -121.3317 168° South 436 502 33,000  Level Seattle Center
04:59PM 44.3947 -121.2961 168° South 433 498 33,000  Level Seattle Center
05:00PM 44.2850 -121.2619 167° South 432 497 33,000  Level Seattle Center
05:01PM 44.1692 -121.2272 168° South 429 494 33,000  Level Seattle Center
05:02PM 44.0539 -121.1897 167° South 428 493 33,000  Level Seattle Center
05:03PM 43.9381 -121.1547 168° South 428 493 33,000  Level Seattle Center
05:05PM 43.8200 -121.1183 167° South 433 498 33,000  Level Seattle Center
05:06PM 43.7033 -121.0811 167° South 433 498 33,000  Level Seattle Center
05:07PM 43.5650 -121.0408 168° South 426 490 33,000  Level Seattle Center
05:08PM 43.4672 -121.0183 171° South 423 487 33,000  Level Seattle Center
05:09PM 43.3514 -120.9817 167° South 426 490 33,000  Level Seattle Center
05:10PM 43.2364 -120.9503 169° South 426 490 33,000  Level Seattle Center
05:11PM 43.1183 -120.9556 182° South 431 496 33,000  Level Seattle Center
05:12PM 42.9742 -120.9778 186° South 436 502 33,000  Level Seattle Center
05:13PM 42.8558 -120.9972 187° South 429 494 33,000  Level Seattle Center
05:14PM 42.7378 -121.0169 187° South 425 489 33,000  Level Seattle Center
05:15PM 42.6194 -121.0356 187° South 427 491 33,000  Level Seattle Center
05:16PM 42.4992 -121.0650 190° South 439 505 33,000  Level Seattle Center
05:17PM 42.3797 -121.1050 194° South 441 507 33,000  Level Seattle Center
05:18PM 42.2575 -121.1431 193° South 448 516 33,000  Level Seattle Center
05:19PM 42.1392 -121.1775 192° South 438 504 33,000  Level Seattle Center
05:20PM 42.0197 -121.1736 179° South 428 493 33,000  Level Seattle Center
05:21PM 41.9014 -121.1633 176° South 423 487 33,000  Level Seattle Center
05:22PM 41.7931 -121.1044 158° South 415 478 33,000  Level Seattle Center
05:23PM 41.6814 -121.0569 162° South 419 482 33,000  Level Seattle Center
05:24PM 41.5703 -121.0061 161° South 420 483 33,000  Level Seattle Center
05:25PM 41.4578 -120.9553 161° South 424 488 33,000  Level Seattle Center
05:26PM 41.3581 -120.8711 148° Southeast 426 490 33,000  Level Seattle Center
05:27PM 41.2669 -120.7708 140° Southeast 425 489 33,000  Level Seattle Center
05:28PM 41.1772 -120.6708 140° Southeast 422 486 33,000  Level Seattle Center
05:29PM 41.0692 -120.5503 140° Southeast 424 488 33,000  Level Seattle Center
05:30PM 40.9769 -120.4494 140° Southeast 428 493 33,000  Level Seattle Center
05:31PM 40.8622 -120.3922 159° South 438 504 33,000  Level Seattle Center
05:32PM 40.7450 -120.3569 167° South 432 497 33,000  Level Seattle Center
05:33PM 40.6311 -120.3186 166° South 425 489 33,000  Level Seattle Center
05:34PM 40.5450 -120.2892 165° South 427 491 33,000  Level Oakland Center
05:35PM 40.4019 -120.2442 167° South 438 504 33,000  Level Oakland Center
05:36PM 40.2836 -120.2056 166° South 439 505 33,000  Level Oakland Center
05:37PM 40.1647 -120.1681 166° South 440 506 33,000  Level Oakland Center
05:38PM 40.0467 -120.1294 166° South 439 505 33,000  Level Oakland Center
05:39PM 39.9289 -120.0908 166° South 438 504 33,000  Level Oakland Center
05:40PM 39.8094 -120.0525 166° South 441 507 33,000  Level Oakland Center
05:41PM 39.6925 -120.0153 166° South 436 502 33,000  Level Oakland Center
05:42PM 39.5761 -119.9786 166° South 434 499 33,000  Level Oakland Center
05:43PM 39.4336 -119.9331 166° South 438 504 33,000  Level Oakland Center
05:44PM 39.3164 -119.8964 166° South 436 502 33,000  Level Oakland Center
05:45PM 39.1969 -119.8589 166° South 441 507 33,000  Level Oakland Center
05:46PM 39.0786 -119.8217 166° South 440 506 33,000  Level Oakland Center
05:47PM 38.9603 -119.7847 166° South 440 506 33,000  Level Oakland Center
05:48PM 38.8400 -119.7472 166° South 444 511 33,000  Level Oakland Center
05:49PM 38.7175 -119.7094 166° South 450 518 33,000  Level Oakland Center
05:50PM 38.5953 -119.6706 166° South 452 520 33,000  Level Oakland Center
05:51PM 38.4483 -119.6253 166° South 453 521 33,000  Level Oakland Center
05:52PM 38.3369 -119.5914 167° South 452 520 33,000  Level Oakland Center
05:53PM 38.2156 -119.5550 167° South 446 513 33,000  Level Oakland Center
05:54PM 38.0964 -119.5169 166° South 444 511 33,000  Level Oakland Center
05:55PM 37.9764 -119.4800 166° South 440 506 33,000  Level Oakland Center
05:56PM 37.8514 -119.4447 167° South 452 520 33,000  Level Oakland Center
05:57PM 37.7069 -119.4006 166° South 444 511 33,000  Level Oakland Center
05:58PM 37.5953 -119.3686 167° South 445 512 33,000  Level Oakland Center
05:59PM 37.4742 -119.3339 167° South 446 513 33,000  Level Oakland Center
06:00PM 37.3542 -119.2964 166° South 445 512 33,000  Level Oakland Center
06:01PM 37.2344 -119.2614 167° South 443 510 33,000  Level Oakland Center
06:02PM 37.0894 -119.2181 167° South 445 512 33,000  Level Oakland Center
06:04PM 36.9686 -119.1808 166° South 447 514 33,000  Level Oakland Center
06:05PM 36.8467 -119.1439 166° South 450 518 33,000  Level Oakland Center
06:06PM 36.7247 -119.1078 167° South 450 518 33,000  Level Oakland Center
06:07PM 36.6031 -119.0722 167° South 449 517 33,000  Level Oakland Center
06:08PM 36.4808 -119.0356 166° South 450 518 33,000  Level Oakland Center
06:09PM 36.3586 -119.0000 167° South 450 518 33,000  Level Oakland Center
06:10PM 36.2358 -118.9667 168° South 451 519 33,000  Level Oakland Center
06:11PM 36.1169 -118.9336 167° South 440 506 33,000  Level Oakland Center
06:12PM 35.9681 -118.8894 166° South 453 521 33,000  Level Oakland Center
06:13PM 35.8461 -118.8539 167° South 450 518 33,000  Level Oakland Center
06:14PM 35.7219 -118.8181 167° South 456 525 33,000 -120 Level Oakland Center
06:15PM 35.5986 -118.7822 167° South 455 524 32,800 -420 Descending Oakland Center
06:16PM 35.4719 -118.7472 167° South 460 529 32,200 -420 Descending Los Angeles Center
06:17PM 35.3492 -118.7114 167° South 456 525 32,000 -120 Descending Los Angeles Center
06:18PM 35.2272 -118.6772 167° South 450 518 32,000 -180 Level Los Angeles Center
06:19PM 35.0783 -118.6361 167° South 454 522 31,700 -1,020 Descending Los Angeles Center
06:20PM 34.9692 -118.5581 150° Southeast 464 534 29,900 -2,040 Descending Los Angeles Center
06:21PM 34.8903 -118.4369 128° Southeast 457 526 27,500 -2,280 Descending Los Angeles Center
06:22PM 34.8111 -118.3239 130° Southeast 448 516 25,300 -2,100 Descending Los Angeles Center
06:23PM 34.7364 -118.2167 130° Southeast 429 494 23,200 -1,920 Descending Los Angeles Center
06:24PM 34.6642 -118.1133 130° Southeast 410 472 21,400 -1,080 Descending Los Angeles Center
06:25PM 34.5919 -117.9811 124° Southeast 395 455 21,000 -240 Descending Los Angeles Center
06:26PM 34.5394 -117.8647 119° Southeast 397 457 21,000 -360 Level Los Angeles Center
06:27PM 34.4850 -117.7467 119° Southeast 402 463 20,300 -840 Descending Los Angeles Center
06:28PM 34.4308 -117.6300 119° Southeast 401 461 19,300 -1,020 Descending Los Angeles Center
06:29PM 34.3756 -117.5056 118° Southeast 381 438 18,200 -1,020 Descending Los Angeles Center
06:30PM 34.3236 -117.3958 120° Southeast 376 433 17,300 -600 Descending Los Angeles Center
06:31PM 34.2736 -117.2864 119° Southeast 372 428 17,000 -300 Descending Los Angeles Center
06:32PM 34.2183 -117.1714 120° Southeast 367 422 16,800 -1,080 Descending Los Angeles Center
06:33PM 34.1692 -117.0644 119° Southeast 365 420 14,800 -1,440 Descending Los Angeles Center
06:34PM 34.1169 -116.9511 119° Southeast 357 411 13,900 -600 Descending Los Angeles Center
06:35PM 34.1000 -116.9000 112° Southeast 350 403 14,000  Climbing Southern California TRACON
06:35PM 34.0689 -116.8489 126° Southeast 353 406 13,900 -300 Descending Los Angeles Center
06:37PM 34.0200 -116.7461 120° Southeast 352 405 13,500 -1,200 Descending Los Angeles Center
06:38PM 33.9725 -116.6431 119° Southeast 350 403 11,500 -1,500 Descending Los Angeles Center
06:39PM 33.9206 -116.5328 120° Southeast 323 372 10,500 -1,200 Descending Los Angeles Center
06:40PM 33.8781 -116.4467 121° Southeast 294 338 9,100 -1,500 Descending Los Angeles Center
06:41PM 33.8300 -116.3467 120° Southeast 258 297 6,800 -1,080 Descending Los Angeles Center
06:42PM 33.7922 -116.2856 127° Southeast 237 273 6,300 -1,500 Descending Los Angeles Center
06:45PM 33.7833 -116.4500 266° West 168 193 1,400 -1,680 Descending Southern California TRACON
06:46PM 33.8167 -116.5000 309° West 150 173 600 -780 Descending Southern California TRACON
06:48PM 33.8297 -116.5067 282° West  Level Estimated
06:55PM 33.8297 -116.5067 282° West  Level Estimated